createdAt,value
2019-02-23T00:00:43.811Z,46.25
2019-02-23T00:01:21.875Z,39.78
2019-02-23T00:01:57.355Z,46.55
2019-02-23T00:02:32.895Z,41.77
2019-02-23T00:03:08.415Z,36.42
2019-02-23T00:03:43.875Z,32.23
2019-02-23T00:04:19.495Z,43.13
2019-02-23T00:04:55.228Z,34.65
2019-02-23T00:05:31.190Z,30.10
2019-02-23T00:06:06.816Z,37.05
2019-02-23T00:06:42.568Z,33.60
2019-02-23T00:07:18.228Z,32.03
2019-02-23T00:07:53.803Z,36.33
2019-02-23T00:08:29.391Z,29.98
2019-02-23T00:09:05.748Z,30.05
2019-02-23T00:09:41.367Z,20.97
2019-02-23T00:10:17.014Z,29.02
2019-02-23T00:10:52.681Z,32.63
2019-02-23T00:11:28.954Z,26.25
2019-02-23T00:12:04.793Z,29.85
2019-02-23T00:12:40.353Z,31.65
2019-02-23T00:13:15.993Z,29.55
2019-02-23T00:13:51.462Z,23.73
2019-02-23T00:14:27.287Z,25.82
2019-02-23T00:15:03.291Z,19.85
2019-02-23T00:15:39.171Z,18.80
2019-02-23T00:16:14.675Z,21.68
2019-02-23T00:16:50.255Z,19.98
2019-02-23T00:17:25.632Z,23.15
2019-02-23T00:18:01.011Z,22.50
2019-02-23T00:18:36.478Z,20.00
2019-02-23T00:19:12.293Z,24.77
2019-02-23T00:19:47.867Z,29.95
2019-02-23T00:20:23.627Z,26.07
2019-02-23T00:20:59.306Z,32.03
2019-02-23T00:21:34.968Z,25.30
2019-02-23T00:22:10.488Z,25.15
2019-02-23T00:22:46.188Z,25.60
2019-02-23T00:23:21.736Z,23.55
2019-02-23T00:23:57.289Z,26.85
2019-02-23T00:24:32.855Z,25.43
2019-02-23T00:25:08.516Z,22.00
2019-02-23T00:25:44.247Z,33.55
2019-02-23T00:26:19.888Z,37.65
2019-02-23T00:26:55.416Z,37.73
2019-02-23T00:27:31.088Z,37.30
2019-02-23T00:28:06.688Z,35.60
2019-02-23T00:28:42.175Z,32.42
2019-02-23T00:29:17.751Z,33.92
2019-02-23T00:29:53.287Z,41.65
2019-02-23T00:30:28.928Z,31.23
2019-02-23T00:31:04.447Z,29.42
2019-02-23T00:31:39.927Z,24.50
2019-02-23T00:32:15.448Z,25.37
2019-02-23T00:32:51.033Z,24.30
2019-02-23T00:33:26.530Z,28.52
2019-02-23T00:34:02.070Z,25.82
2019-02-23T00:34:38.171Z,21.45
2019-02-23T00:35:13.809Z,24.47
2019-02-23T00:35:49.418Z,23.05
2019-02-23T00:36:25.435Z,24.30
2019-02-23T00:37:00.870Z,21.20
2019-02-23T00:37:36.253Z,27.70
2019-02-23T00:38:11.772Z,26.82
2019-02-23T00:38:50.221Z,24.12
2019-02-23T00:39:25.714Z,23.52
2019-02-23T00:40:01.334Z,23.12
2019-02-23T00:40:37.954Z,26.57
2019-02-23T00:41:13.401Z,28.38
2019-02-23T00:41:48.962Z,26.07
2019-02-23T00:42:24.473Z,26.62
2019-02-23T00:43:00.013Z,26.62
2019-02-23T00:43:35.473Z,34.78
2019-02-23T00:44:11.272Z,38.45
2019-02-23T00:44:46.893Z,29.72
2019-02-23T00:45:22.313Z,22.87
2019-02-23T00:45:57.966Z,25.82
2019-02-23T00:46:33.852Z,27.93
2019-02-23T00:47:09.430Z,29.57
2019-02-23T00:47:45.131Z,36.08
2019-02-23T00:48:20.810Z,32.67
2019-02-23T00:48:56.370Z,34.43
2019-02-23T00:49:36.280Z,34.05
2019-02-23T00:50:09.356Z,37.58
2019-02-23T00:50:45.039Z,28.38
2019-02-23T00:51:20.701Z,39.13
2019-02-23T00:51:56.315Z,33.23
2019-02-23T00:52:31.876Z,27.67
2019-02-23T00:53:07.415Z,32.25
2019-02-23T00:53:42.916Z,34.25
2019-02-23T00:54:18.555Z,33.78
2019-02-23T00:54:54.367Z,33.48
2019-02-23T00:55:29.988Z,33.35
2019-02-23T00:56:05.496Z,31.42
2019-02-23T00:56:41.149Z,31.48
2019-02-23T00:57:16.788Z,32.42
2019-02-23T00:57:52.276Z,30.92
2019-02-23T00:58:27.748Z,31.70
2019-02-23T00:59:03.347Z,32.38
2019-02-23T00:59:38.988Z,39.55
2019-02-23T01:00:14.868Z,34.43
2019-02-23T01:00:50.455Z,27.22
2019-02-23T01:01:25.934Z,29.25
2019-02-23T01:02:01.534Z,34.80
2019-02-23T01:02:37.074Z,33.00
2019-02-23T01:03:12.513Z,31.65
2019-02-23T01:03:47.893Z,27.85
2019-02-23T01:04:23.373Z,23.18
2019-02-23T01:04:58.923Z,20.62
2019-02-23T01:05:34.531Z,22.32
2019-02-23T01:06:10.036Z,21.68
2019-02-23T01:06:45.657Z,25.25
2019-02-23T01:07:21.492Z,18.02
2019-02-23T01:07:57.046Z,21.17
2019-02-23T01:08:32.553Z,21.37
2019-02-23T01:09:08.069Z,17.60
2019-02-23T01:09:43.572Z,22.60
2019-02-23T01:10:19.653Z,19.90
2019-02-23T01:10:58.067Z,17.17
2019-02-23T01:11:32.132Z,17.75
2019-02-23T01:12:07.691Z,23.90
2019-02-23T01:12:43.212Z,16.82
2019-02-23T01:13:18.732Z,15.95
2019-02-23T01:13:54.151Z,20.25
2019-02-23T01:14:29.775Z,18.40
2019-02-23T01:15:05.788Z,20.82
2019-02-23T01:15:41.247Z,24.57
2019-02-23T01:16:16.788Z,25.43
2019-02-23T01:16:52.409Z,23.92
2019-02-23T01:17:28.108Z,19.62
2019-02-23T01:18:03.908Z,17.62
2019-02-23T01:18:39.807Z,21.62
2019-02-23T01:19:15.428Z,19.92
2019-02-23T01:19:50.930Z,20.35
2019-02-23T01:20:26.430Z,19.77
2019-02-23T01:21:01.749Z,19.98
2019-02-23T01:21:37.190Z,17.20
2019-02-23T01:22:13.010Z,20.72
2019-02-23T01:22:48.588Z,22.25
2019-02-23T01:23:24.249Z,18.57
2019-02-23T01:23:59.807Z,21.40
2019-02-23T01:24:35.275Z,19.98
2019-02-23T01:25:11.132Z,17.30
2019-02-23T01:25:46.667Z,17.35
2019-02-23T01:26:22.188Z,18.50
2019-02-23T01:26:57.528Z,17.77
2019-02-23T01:27:33.076Z,21.90
2019-02-23T01:28:08.848Z,17.70
2019-02-23T01:28:44.408Z,20.15
2019-02-23T01:29:19.968Z,24.90
2019-02-23T01:29:55.356Z,22.70
2019-02-23T01:30:31.068Z,25.00
2019-02-23T01:31:06.771Z,24.57
2019-02-23T01:31:42.332Z,23.80
2019-02-23T01:32:17.810Z,24.05
2019-02-23T01:32:53.220Z,27.13
2019-02-23T01:33:28.653Z,27.82
2019-02-23T01:34:04.230Z,24.55
2019-02-23T01:34:39.812Z,29.67
2019-02-23T01:35:15.292Z,34.03
2019-02-23T01:35:50.733Z,28.00
2019-02-23T01:36:26.071Z,26.68
2019-02-23T01:37:01.631Z,24.75
2019-02-23T01:37:37.111Z,22.48
2019-02-23T01:38:12.675Z,30.12
2019-02-23T01:38:48.637Z,24.05
2019-02-23T01:39:24.097Z,27.22
2019-02-23T01:39:59.738Z,27.65
2019-02-23T01:40:35.355Z,29.05
2019-02-23T01:41:10.989Z,30.48
2019-02-23T01:41:46.570Z,29.67
2019-02-23T01:42:22.230Z,25.08
2019-02-23T01:42:58.479Z,25.62
2019-02-23T01:43:34.107Z,31.68
2019-02-23T01:44:09.727Z,27.60
2019-02-23T01:44:45.253Z,23.47
2019-02-23T01:45:20.915Z,27.32
2019-02-23T01:45:56.518Z,25.17
2019-02-23T01:46:32.154Z,27.25
2019-02-23T01:47:07.674Z,27.75
2019-02-23T01:47:43.176Z,20.97
2019-02-23T01:48:19.017Z,25.10
2019-02-23T01:48:54.436Z,24.47
2019-02-23T01:49:29.914Z,27.42
2019-02-23T01:50:05.854Z,21.33
2019-02-23T01:50:41.386Z,26.40
2019-02-23T01:51:16.915Z,23.50
2019-02-23T01:51:52.395Z,23.12
2019-02-23T01:52:27.974Z,28.52
2019-02-23T01:53:03.574Z,26.00
2019-02-23T01:53:39.096Z,22.10
2019-02-23T01:54:14.749Z,24.50
2019-02-23T01:54:50.269Z,20.02
2019-02-23T01:55:25.875Z,26.23
2019-02-23T01:56:01.470Z,19.73
2019-02-23T01:56:36.870Z,24.20
2019-02-23T01:57:12.409Z,23.05
2019-02-23T01:57:47.918Z,21.42
2019-02-23T01:58:23.449Z,23.52
2019-02-23T01:58:59.152Z,24.67
2019-02-23T01:59:34.748Z,26.50
2019-02-23T02:00:12.976Z,19.80
2019-02-23T02:00:48.510Z,25.30
2019-02-23T02:01:23.928Z,25.40
2019-02-23T02:01:59.488Z,24.57
2019-02-23T02:02:35.028Z,24.95
2019-02-23T02:03:10.798Z,31.90
2019-02-23T02:03:46.491Z,34.70
2019-02-23T02:04:22.031Z,32.00
2019-02-23T02:04:57.660Z,36.53
2019-02-23T02:05:33.408Z,33.75
2019-02-23T02:06:08.939Z,40.10
2019-02-23T02:06:44.372Z,31.20
2019-02-23T02:07:19.672Z,39.48
2019-02-23T02:07:55.451Z,41.42
2019-02-23T02:08:31.332Z,35.83
2019-02-23T02:09:07.570Z,34.15
2019-02-23T02:09:43.090Z,31.02
2019-02-23T02:10:19.189Z,34.10
2019-02-23T02:10:54.810Z,39.85
2019-02-23T02:11:30.448Z,40.05
2019-02-23T02:12:06.874Z,33.35
2019-02-23T02:12:42.502Z,33.02
2019-02-23T02:13:18.192Z,36.75
2019-02-23T02:13:53.908Z,35.10
2019-02-23T02:14:29.590Z,27.02
2019-02-23T02:15:05.215Z,34.75
2019-02-23T02:15:40.988Z,29.55
2019-02-23T02:16:16.788Z,29.67
2019-02-23T02:16:52.497Z,32.67
2019-02-23T02:17:28.068Z,32.17
2019-02-23T02:18:03.648Z,33.60
2019-02-23T02:18:39.588Z,27.93
2019-02-23T02:19:15.287Z,30.82
2019-02-23T02:19:50.830Z,25.32
2019-02-23T02:20:26.311Z,28.70
2019-02-23T02:21:01.854Z,28.90
2019-02-23T02:21:37.412Z,26.17
2019-02-23T02:22:13.031Z,29.30
2019-02-23T02:22:48.572Z,30.45
2019-02-23T02:23:24.292Z,33.83
2019-02-23T02:23:59.892Z,30.55
2019-02-23T02:24:35.358Z,28.73
2019-02-23T02:25:11.129Z,26.27
2019-02-23T02:25:46.730Z,25.62
2019-02-23T02:26:22.511Z,30.37
2019-02-23T02:26:58.208Z,30.50
2019-02-23T02:27:33.772Z,26.27
2019-02-23T02:28:09.337Z,27.05
2019-02-23T02:28:44.947Z,29.80
2019-02-23T02:29:20.588Z,31.68
2019-02-23T02:29:56.308Z,29.48
2019-02-23T02:30:31.889Z,29.45
2019-02-23T02:31:07.540Z,36.05
2019-02-23T02:31:43.248Z,29.37
2019-02-23T02:32:18.849Z,36.45
2019-02-23T02:32:54.677Z,34.05
2019-02-23T02:33:30.332Z,37.48
2019-02-23T02:34:11.855Z,29.12
2019-02-23T02:34:47.475Z,30.77
2019-02-23T02:35:23.155Z,34.48
2019-02-23T02:35:58.656Z,33.65
2019-02-23T02:36:34.175Z,44.75
2019-02-23T02:37:09.876Z,40.58
2019-02-23T02:37:45.435Z,36.93
2019-02-23T02:38:20.936Z,39.90
2019-02-23T02:38:56.556Z,39.08
2019-02-23T02:39:32.108Z,40.03
2019-02-23T02:40:08.287Z,35.58
2019-02-23T02:40:43.909Z,41.60
2019-02-23T02:41:19.628Z,40.50
2019-02-23T02:41:55.128Z,40.75
2019-02-23T02:42:30.628Z,33.48
2019-02-23T02:43:06.270Z,39.03
2019-02-23T02:43:41.918Z,40.35
2019-02-23T02:44:17.510Z,36.45
2019-02-23T02:44:53.172Z,39.67
2019-02-23T02:45:28.771Z,38.95
2019-02-23T02:46:04.188Z,39.42
2019-02-23T02:46:39.761Z,42.80
2019-02-23T02:47:15.147Z,33.63
2019-02-23T02:47:50.748Z,35.00
2019-02-23T02:48:26.227Z,32.08
2019-02-23T02:49:01.753Z,37.95
2019-02-23T02:49:37.329Z,32.48
2019-02-23T02:50:23.835Z,35.90
2019-02-23T02:50:50.329Z,37.30
2019-02-23T02:51:25.851Z,32.60
2019-02-23T02:52:01.468Z,32.00
2019-02-23T02:52:36.910Z,27.52
2019-02-23T02:53:12.707Z,31.10
2019-02-23T02:53:48.269Z,26.75
2019-02-23T02:54:23.890Z,26.00
2019-02-23T02:54:59.491Z,28.92
2019-02-23T02:55:34.909Z,29.23
2019-02-23T02:56:10.511Z,33.65
2019-02-23T02:56:46.168Z,29.67
2019-02-23T02:57:21.668Z,31.97
2019-02-23T02:57:57.891Z,29.32
2019-02-23T02:58:33.495Z,28.52
2019-02-23T02:59:08.892Z,26.50
2019-02-23T02:59:44.470Z,30.92
2019-02-23T03:00:19.912Z,28.67
2019-02-23T03:00:55.629Z,39.63
2019-02-23T03:01:31.212Z,27.42
2019-02-23T03:02:06.613Z,26.23
2019-02-23T03:02:42.173Z,25.90
2019-02-23T03:03:17.693Z,24.37
2019-02-23T03:03:53.673Z,22.95
2019-02-23T03:04:29.252Z,32.33
2019-02-23T03:05:04.932Z,28.52
2019-02-23T03:05:40.573Z,27.73
2019-02-23T03:06:15.953Z,28.55
2019-02-23T03:06:51.548Z,24.92
2019-02-23T03:07:27.250Z,31.20
2019-02-23T03:08:02.856Z,27.58
2019-02-23T03:08:38.428Z,32.90
2019-02-23T03:09:14.152Z,29.57
2019-02-23T03:09:49.670Z,31.05
2019-02-23T03:10:25.270Z,29.67
2019-02-23T03:11:00.810Z,26.57
2019-02-23T03:11:36.552Z,25.92
2019-02-23T03:12:12.189Z,27.75
2019-02-23T03:12:47.788Z,27.05
2019-02-23T03:13:23.229Z,23.50
2019-02-23T03:13:58.729Z,30.35
2019-02-23T03:14:34.189Z,32.15
2019-02-23T03:15:10.011Z,25.97
2019-02-23T03:15:45.408Z,28.92
2019-02-23T03:16:21.009Z,27.58
2019-02-23T03:16:56.529Z,27.48
2019-02-23T03:17:32.248Z,28.50
2019-02-23T03:18:07.799Z,28.90
2019-02-23T03:18:43.448Z,35.43
2019-02-23T03:19:19.157Z,26.82
2019-02-23T03:19:54.774Z,32.67
2019-02-23T03:20:36.620Z,27.02
2019-02-23T03:21:07.668Z,29.95
2019-02-23T03:21:43.248Z,34.20
2019-02-23T03:22:18.909Z,36.03
2019-02-23T03:22:54.548Z,33.95
2019-02-23T03:23:30.356Z,25.95
2019-02-23T03:24:06.270Z,25.85
2019-02-23T03:24:41.791Z,26.37
2019-02-23T03:25:17.511Z,33.92
2019-02-23T03:25:53.073Z,26.93
2019-02-23T03:26:28.690Z,26.00
2019-02-23T03:27:04.269Z,35.17
2019-02-23T03:27:39.871Z,30.68
2019-02-23T03:28:15.213Z,28.07
2019-02-23T03:28:50.663Z,36.63
2019-02-23T03:29:26.053Z,32.42
2019-02-23T03:30:01.433Z,34.83
2019-02-23T03:30:37.054Z,33.90
2019-02-23T03:31:12.551Z,33.58
2019-02-23T03:31:48.089Z,32.88
2019-02-23T03:32:23.569Z,28.27
2019-02-23T03:32:59.172Z,30.40
2019-02-23T03:33:34.830Z,28.75
2019-02-23T03:34:10.570Z,27.42
2019-02-23T03:34:46.089Z,32.30
2019-02-23T03:35:21.609Z,27.17
2019-02-23T03:35:57.348Z,27.62
2019-02-23T03:36:32.887Z,29.77
2019-02-23T03:37:08.570Z,26.20
2019-02-23T03:37:44.228Z,33.38
2019-02-23T03:38:19.814Z,27.02
2019-02-23T03:38:55.770Z,23.60
2019-02-23T03:39:31.376Z,27.73
2019-02-23T03:40:08.072Z,22.95
2019-02-23T03:40:43.652Z,31.12
2019-02-23T03:41:19.292Z,25.62
2019-02-23T03:41:54.848Z,29.20
2019-02-23T03:42:30.509Z,20.27
2019-02-23T03:43:06.288Z,22.17
2019-02-23T03:43:41.808Z,32.98
2019-02-23T03:44:17.508Z,22.73
2019-02-23T03:44:53.027Z,23.55
2019-02-23T03:45:28.573Z,25.88
2019-02-23T03:46:04.349Z,30.40
2019-02-23T03:46:39.988Z,25.95
2019-02-23T03:47:15.608Z,25.40
2019-02-23T03:47:51.129Z,26.93
2019-02-23T03:48:26.808Z,31.05
2019-02-23T03:49:02.448Z,24.55
2019-02-23T03:49:38.048Z,28.02
2019-02-23T03:50:13.690Z,24.47
2019-02-23T03:50:49.671Z,21.80
2019-02-23T03:51:25.414Z,25.80
2019-02-23T03:52:01.031Z,22.93
2019-02-23T03:52:36.533Z,23.92
2019-02-23T03:53:12.151Z,25.35
2019-02-23T03:53:47.591Z,23.18
2019-02-23T03:54:23.091Z,23.73
2019-02-23T03:54:58.773Z,25.85
2019-02-23T03:55:34.392Z,30.88
2019-02-23T03:56:09.930Z,24.65
2019-02-23T03:56:45.353Z,24.98
2019-02-23T03:57:20.951Z,21.77
2019-02-23T03:57:56.430Z,25.05
2019-02-23T03:58:32.350Z,21.35
2019-02-23T03:59:08.271Z,22.00
2019-02-23T03:59:43.769Z,25.27
2019-02-23T04:00:19.431Z,23.67
2019-02-23T04:00:55.158Z,25.65
2019-02-23T04:01:30.669Z,22.80
2019-02-23T04:02:06.376Z,26.02
2019-02-23T04:02:42.029Z,26.55
2019-02-23T04:03:17.509Z,26.52
2019-02-23T04:03:53.027Z,28.95
2019-02-23T04:04:28.569Z,24.35
2019-02-23T04:05:04.188Z,22.82
2019-02-23T04:05:39.828Z,24.82
2019-02-23T04:06:15.267Z,24.15
2019-02-23T04:06:50.788Z,25.17
2019-02-23T04:07:26.345Z,21.55
2019-02-23T04:08:01.955Z,24.98
2019-02-23T04:08:37.578Z,18.80
2019-02-23T04:09:13.208Z,20.30
2019-02-23T04:09:48.768Z,23.18
2019-02-23T04:10:24.292Z,21.73
2019-02-23T04:10:59.876Z,24.00
2019-02-23T04:11:35.311Z,21.05
2019-02-23T04:12:10.724Z,20.37
2019-02-23T04:12:46.290Z,17.82
2019-02-23T04:13:21.815Z,25.75
2019-02-23T04:13:57.531Z,24.47
2019-02-23T04:14:33.013Z,21.37
2019-02-23T04:15:08.596Z,21.60
2019-02-23T04:15:44.077Z,18.80
2019-02-23T04:16:19.673Z,20.45
2019-02-23T04:16:55.291Z,26.23
2019-02-23T04:17:30.651Z,20.60
2019-02-23T04:18:06.150Z,28.05
2019-02-23T04:18:41.810Z,16.93
2019-02-23T04:19:17.227Z,20.45
2019-02-23T04:19:52.611Z,17.62
2019-02-23T04:20:28.288Z,23.00
2019-02-23T04:21:03.829Z,18.23
2019-02-23T04:21:39.308Z,21.50
2019-02-23T04:22:14.949Z,23.60
2019-02-23T04:22:50.587Z,23.15
2019-02-23T04:23:26.008Z,24.55
2019-02-23T04:24:01.548Z,24.57
2019-02-23T04:24:37.207Z,19.65
2019-02-23T04:25:12.699Z,20.20
2019-02-23T04:25:48.371Z,18.92
2019-02-23T04:26:24.128Z,21.93
2019-02-23T04:26:59.637Z,24.47
2019-02-23T04:27:35.233Z,19.75
2019-02-23T04:28:10.834Z,20.37
2019-02-23T04:28:46.411Z,25.12
2019-02-23T04:29:21.811Z,20.02
2019-02-23T04:29:57.351Z,23.80
2019-02-23T04:30:32.900Z,18.23
2019-02-23T04:31:08.172Z,20.08
2019-02-23T04:31:43.652Z,17.20
2019-02-23T04:32:19.132Z,20.48
2019-02-23T04:32:54.733Z,22.37
2019-02-23T04:33:30.231Z,23.52
2019-02-23T04:34:05.574Z,20.92
2019-02-23T04:34:41.040Z,21.23
2019-02-23T04:35:16.611Z,21.48
2019-02-23T04:35:52.232Z,24.35
2019-02-23T04:36:27.813Z,25.65
2019-02-23T04:37:03.252Z,22.70
2019-02-23T04:37:38.731Z,24.65
2019-02-23T04:38:14.250Z,20.62
2019-02-23T04:38:49.752Z,20.75
2019-02-23T04:39:25.250Z,16.87
2019-02-23T04:40:00.717Z,19.23
2019-02-23T04:40:36.449Z,17.77
2019-02-23T04:41:12.188Z,17.45
2019-02-23T04:41:47.731Z,22.50
2019-02-23T04:42:23.254Z,21.37
2019-02-23T04:42:58.948Z,20.48
2019-02-23T04:43:34.468Z,29.57
2019-02-23T04:44:09.970Z,29.23
2019-02-23T04:44:45.308Z,23.98
2019-02-23T04:45:20.867Z,22.82
2019-02-23T04:45:56.489Z,33.40
2019-02-23T04:46:32.188Z,29.02
2019-02-23T04:47:07.847Z,34.08
2019-02-23T04:47:43.608Z,35.17
2019-02-23T04:48:19.275Z,38.55
2019-02-23T04:48:54.928Z,37.10
2019-02-23T04:49:30.757Z,28.62
2019-02-23T04:50:06.863Z,37.25
2019-02-23T04:50:42.566Z,39.15
2019-02-23T04:51:18.149Z,38.28
2019-02-23T04:51:53.827Z,36.15
2019-02-23T04:52:29.529Z,40.45
2019-02-23T04:53:05.168Z,32.58
2019-02-23T04:53:40.714Z,35.73
2019-02-23T04:54:16.276Z,34.55
2019-02-23T04:54:51.950Z,28.98
2019-02-23T04:55:27.449Z,28.65
2019-02-23T04:56:03.011Z,30.40
2019-02-23T04:56:38.810Z,37.80
2019-02-23T04:57:14.415Z,30.50
2019-02-23T04:57:49.828Z,33.58
2019-02-23T04:58:25.427Z,34.13
2019-02-23T04:59:01.061Z,30.20
2019-02-23T04:59:36.613Z,31.80
2019-02-23T05:00:13.657Z,25.02
2019-02-23T05:00:49.236Z,24.50
2019-02-23T05:01:24.896Z,24.00
2019-02-23T05:02:00.380Z,28.87
2019-02-23T05:02:36.071Z,27.35
2019-02-23T05:03:11.753Z,31.60
2019-02-23T05:03:47.189Z,29.55
2019-02-23T05:04:22.709Z,31.12
2019-02-23T05:04:58.159Z,26.40
2019-02-23T05:05:33.888Z,34.45
2019-02-23T05:06:09.427Z,33.65
2019-02-23T05:06:44.948Z,29.65
2019-02-23T05:07:20.505Z,23.92
2019-02-23T05:07:56.769Z,29.77
2019-02-23T05:08:32.547Z,29.70
2019-02-23T05:09:08.270Z,25.77
2019-02-23T05:09:43.868Z,29.63
2019-02-23T05:10:19.814Z,30.82
2019-02-23T05:10:55.390Z,22.58
2019-02-23T05:11:31.055Z,31.35
2019-02-23T05:12:06.728Z,28.27
2019-02-23T05:12:42.288Z,31.12
2019-02-23T05:13:17.769Z,26.15
2019-02-23T05:13:53.408Z,31.30
2019-02-23T05:14:29.070Z,28.10
2019-02-23T05:15:04.856Z,30.00
2019-02-23T05:15:40.368Z,25.25
2019-02-23T05:16:15.883Z,24.95
2019-02-23T05:16:51.533Z,32.83
2019-02-23T05:17:26.979Z,27.70
2019-02-23T05:18:02.633Z,28.80
2019-02-23T05:18:38.324Z,27.48
2019-02-23T05:19:13.954Z,34.25
2019-02-23T05:19:49.554Z,27.52
2019-02-23T05:20:25.054Z,36.85
2019-02-23T05:21:00.912Z,28.30
2019-02-23T05:21:36.469Z,27.17
2019-02-23T05:22:12.067Z,29.40
2019-02-23T05:22:47.629Z,32.85
2019-02-23T05:23:23.296Z,34.45
2019-02-23T05:23:59.148Z,29.07
2019-02-23T05:24:34.613Z,38.50
2019-02-23T05:25:10.252Z,31.23
2019-02-23T05:25:45.993Z,34.00
2019-02-23T05:26:21.631Z,31.55
2019-02-23T05:26:57.134Z,32.40
2019-02-23T05:27:33.248Z,23.83
2019-02-23T05:28:08.988Z,31.02
2019-02-23T05:28:44.593Z,30.30
2019-02-23T05:29:20.129Z,36.88
2019-02-23T05:29:55.790Z,39.55
2019-02-23T05:30:31.315Z,36.13
2019-02-23T05:31:06.810Z,30.08
2019-02-23T05:31:42.567Z,27.73
2019-02-23T05:32:18.049Z,29.63
2019-02-23T05:32:53.650Z,26.37
2019-02-23T05:33:29.330Z,35.38
2019-02-23T05:34:05.130Z,25.57
2019-02-23T05:34:40.631Z,24.67
2019-02-23T05:35:16.238Z,34.30
2019-02-23T05:35:51.993Z,32.25
2019-02-23T05:36:27.653Z,28.98
2019-02-23T05:37:03.233Z,28.02
2019-02-23T05:37:38.856Z,22.55
2019-02-23T05:38:14.533Z,24.10
2019-02-23T05:38:50.256Z,25.57
2019-02-23T05:39:25.836Z,26.73
2019-02-23T05:40:01.779Z,28.17
2019-02-23T05:40:37.368Z,23.70
2019-02-23T05:41:13.008Z,26.77
2019-02-23T05:41:48.579Z,22.82
2019-02-23T05:42:24.567Z,26.12
2019-02-23T05:43:01.226Z,29.50
2019-02-23T05:43:37.013Z,35.20
2019-02-23T05:44:12.991Z,23.35
2019-02-23T05:44:48.578Z,32.83
2019-02-23T05:45:24.297Z,30.50
2019-02-23T05:46:00.117Z,25.60
2019-02-23T05:46:35.716Z,27.30
2019-02-23T05:47:11.317Z,28.30
2019-02-23T05:47:46.953Z,23.73
2019-02-23T05:48:22.587Z,31.40
2019-02-23T05:48:57.951Z,23.55
2019-02-23T05:49:36.654Z,25.57
2019-02-23T05:50:10.715Z,29.27
2019-02-23T05:50:46.430Z,27.90
2019-02-23T05:51:22.010Z,30.17
2019-02-23T05:51:57.690Z,31.10
2019-02-23T05:52:33.248Z,26.35
2019-02-23T05:53:08.788Z,27.77
2019-02-23T05:53:44.335Z,23.10
2019-02-23T05:54:19.753Z,21.30
2019-02-23T05:54:55.347Z,22.45
2019-02-23T05:55:31.091Z,26.50
2019-02-23T05:56:06.628Z,28.32
2019-02-23T05:56:42.357Z,24.02
2019-02-23T05:57:17.928Z,25.80
2019-02-23T05:57:53.489Z,26.93
2019-02-23T05:58:28.988Z,26.62
2019-02-23T05:59:04.489Z,30.12
2019-02-23T05:59:40.107Z,33.90
2019-02-23T06:00:16.378Z,28.50
2019-02-23T06:00:51.975Z,23.75
2019-02-23T06:01:27.656Z,27.35
2019-02-23T06:02:03.175Z,30.25
2019-02-23T06:02:38.803Z,23.38
2019-02-23T06:03:14.234Z,19.48
2019-02-23T06:03:49.869Z,20.72
2019-02-23T06:04:25.345Z,19.67
2019-02-23T06:05:00.978Z,24.15
2019-02-23T06:05:36.435Z,26.73
2019-02-23T06:06:12.116Z,21.42
2019-02-23T06:06:47.636Z,21.05
2019-02-23T06:07:23.175Z,23.07
2019-02-23T06:07:58.890Z,25.88
2019-02-23T06:08:34.354Z,25.65
2019-02-23T06:09:09.857Z,25.37
2019-02-23T06:09:45.209Z,24.45
2019-02-23T06:10:20.650Z,24.90
2019-02-23T06:10:56.190Z,26.80
2019-02-23T06:11:31.830Z,28.12
2019-02-23T06:12:07.730Z,22.15
2019-02-23T06:12:43.289Z,26.15
2019-02-23T06:13:18.850Z,27.48
2019-02-23T06:13:54.569Z,26.93
2019-02-23T06:14:30.169Z,25.23
2019-02-23T06:15:06.931Z,29.95
2019-02-23T06:15:42.547Z,32.20
2019-02-23T06:16:18.169Z,27.15
2019-02-23T06:16:53.688Z,24.23
2019-02-23T06:17:29.136Z,22.42
2019-02-23T06:18:04.848Z,26.95
2019-02-23T06:18:40.668Z,27.70
2019-02-23T06:19:16.309Z,30.32
2019-02-23T06:19:51.887Z,26.95
2019-02-23T06:20:27.249Z,42.75
2019-02-23T06:21:02.810Z,42.33
2019-02-23T06:21:52.306Z,33.25
2019-02-23T06:22:15.501Z,39.48
2019-02-23T06:22:51.115Z,45.55
2019-02-23T06:23:26.695Z,36.93
2019-02-23T06:24:02.115Z,37.20
2019-02-23T06:24:37.753Z,38.70
2019-02-23T06:25:13.173Z,33.45
2019-02-23T06:25:48.851Z,39.83
2019-02-23T06:26:24.728Z,34.58
2019-02-23T06:27:00.408Z,33.20
2019-02-23T06:27:36.048Z,25.82
2019-02-23T06:28:11.710Z,37.95
2019-02-23T06:28:47.267Z,40.03
2019-02-23T06:29:22.768Z,42.70
2019-02-23T06:29:58.288Z,40.43
2019-02-23T06:30:34.232Z,36.68
2019-02-23T06:31:09.848Z,44.85
2019-02-23T06:31:45.553Z,38.50
2019-02-23T06:32:21.128Z,46.20
2019-02-23T06:32:56.668Z,44.00
2019-02-23T06:33:32.188Z,37.98
2019-02-23T06:34:15.999Z,44.00
2019-02-23T06:34:44.828Z,38.70
2019-02-23T06:35:20.616Z,39.23
2019-02-23T06:35:56.208Z,35.05
2019-02-23T06:36:31.729Z,33.23
2019-02-23T06:37:07.228Z,36.08
2019-02-23T06:37:42.687Z,30.40
2019-02-23T06:38:18.128Z,30.12
2019-02-23T06:38:53.928Z,31.97
2019-02-23T06:39:29.376Z,28.90
2019-02-23T06:40:05.227Z,27.67
2019-02-23T06:40:40.801Z,26.20
2019-02-23T06:41:16.468Z,22.05
2019-02-23T06:41:52.008Z,28.47
2019-02-23T06:42:27.572Z,25.92
2019-02-23T06:43:03.108Z,24.52
2019-02-23T06:43:38.612Z,30.35
2019-02-23T06:44:14.117Z,29.05
2019-02-23T06:44:49.678Z,30.50
2019-02-23T06:45:25.170Z,30.75
2019-02-23T06:46:00.814Z,43.08
2019-02-23T06:46:36.488Z,36.58
2019-02-23T06:47:11.929Z,32.60
2019-02-23T06:47:47.695Z,33.63
2019-02-23T06:48:23.217Z,40.25
2019-02-23T06:48:58.908Z,33.08
2019-02-23T06:49:34.588Z,31.27
2019-02-23T06:50:10.173Z,30.40
2019-02-23T06:50:45.773Z,27.67
2019-02-23T06:51:21.334Z,26.25
2019-02-23T06:52:04.033Z,26.80
2019-02-23T06:52:33.653Z,31.73
2019-02-23T06:53:09.152Z,29.18
2019-02-23T06:53:44.692Z,22.45
2019-02-23T06:54:20.194Z,29.37
2019-02-23T06:54:58.321Z,26.00
2019-02-23T06:55:32.896Z,30.80
2019-02-23T06:56:08.708Z,33.73
2019-02-23T06:56:44.528Z,31.75
2019-02-23T06:57:20.091Z,30.90
2019-02-23T06:57:55.696Z,29.52
2019-02-23T06:58:31.236Z,29.05
2019-02-23T06:59:06.888Z,26.27
2019-02-23T06:59:42.468Z,27.40
2019-02-23T07:00:17.936Z,34.78
2019-02-23T07:00:53.588Z,28.00
2019-02-23T07:01:29.350Z,24.98
2019-02-23T07:02:04.988Z,25.27
2019-02-23T07:02:40.548Z,26.20
2019-02-23T07:03:16.008Z,25.32
2019-02-23T07:03:51.608Z,21.07
2019-02-23T07:04:26.968Z,18.70
2019-02-23T07:05:02.519Z,19.90
2019-02-23T07:05:38.088Z,13.28
2019-02-23T07:06:13.636Z,14.53
2019-02-23T07:06:49.210Z,19.62
2019-02-23T07:07:24.710Z,16.45
2019-02-23T07:08:00.230Z,20.05
2019-02-23T07:08:35.871Z,16.67
2019-02-23T07:09:11.392Z,16.48
2019-02-23T07:09:47.089Z,14.50
2019-02-23T07:10:23.109Z,13.32
2019-02-23T07:10:58.629Z,13.85
2019-02-23T07:11:34.282Z,18.20
2019-02-23T07:12:09.814Z,22.37
2019-02-23T07:12:45.356Z,16.40
2019-02-23T07:13:20.970Z,16.20
2019-02-23T07:13:56.875Z,16.17
2019-02-23T07:14:33.091Z,14.13
2019-02-23T07:15:09.073Z,15.70
2019-02-23T07:15:44.793Z,18.40
2019-02-23T07:16:20.354Z,17.95
2019-02-23T07:16:55.974Z,15.58
2019-02-23T07:17:31.712Z,16.93
2019-02-23T07:18:07.291Z,20.77
2019-02-23T07:18:42.919Z,18.77
2019-02-23T07:19:18.472Z,17.82
2019-02-23T07:19:53.902Z,17.67
2019-02-23T07:20:29.402Z,18.50
2019-02-23T07:21:04.934Z,18.92
2019-02-23T07:21:40.262Z,13.68
2019-02-23T07:22:16.056Z,16.97
2019-02-23T07:22:51.704Z,20.70
2019-02-23T07:23:27.213Z,15.83
2019-02-23T07:24:03.210Z,20.05
2019-02-23T07:24:38.658Z,15.98
2019-02-23T07:25:14.210Z,16.15
2019-02-23T07:25:49.610Z,15.05
2019-02-23T07:26:25.197Z,16.48
2019-02-23T07:27:01.312Z,15.60
2019-02-23T07:27:36.732Z,16.77
2019-02-23T07:28:12.139Z,15.08
2019-02-23T07:28:47.691Z,14.43
2019-02-23T07:29:23.112Z,16.65
2019-02-23T07:29:58.452Z,19.10
2019-02-23T07:30:33.990Z,14.45
2019-02-23T07:31:09.450Z,20.60
2019-02-23T07:31:45.150Z,14.35
2019-02-23T07:32:20.570Z,16.93
2019-02-23T07:32:56.210Z,20.82
2019-02-23T07:33:33.078Z,18.95
2019-02-23T07:34:08.830Z,16.90
2019-02-23T07:34:44.354Z,16.75
2019-02-23T07:35:19.654Z,17.45
2019-02-23T07:35:55.111Z,15.10
2019-02-23T07:36:30.677Z,15.13
2019-02-23T07:37:06.370Z,13.60
2019-02-23T07:37:41.911Z,14.73
2019-02-23T07:38:17.960Z,13.05
2019-02-23T07:38:53.568Z,20.85
2019-02-23T07:39:29.049Z,17.10